createdAt,value
2023-03-06T00:01:07.025Z,65.14
2023-03-06T00:03:29.641Z,65.04
2023-03-06T00:05:52.283Z,65.15
2023-03-06T00:08:15.705Z,65.24
2023-03-06T00:10:38.687Z,65.51
2023-03-06T00:13:04.098Z,65.87
2023-03-06T00:15:27.748Z,65.62
2023-03-06T00:17:50.405Z,65.53
2023-03-06T00:20:13.876Z,65.12
2023-03-06T00:22:36.606Z,65.48
2023-03-06T00:24:59.424Z,65.59
2023-03-06T00:27:22.044Z,65.89
2023-03-06T00:29:45.644Z,65.61
2023-03-06T00:32:09.102Z,65.19
2023-03-06T00:34:31.846Z,65.54
2023-03-06T00:36:54.529Z,65.89
2023-03-06T00:39:17.213Z,65.74
2023-03-06T00:41:39.810Z,65.69
2023-03-06T00:44:02.431Z,65.71
2023-03-06T00:46:25.153Z,65.51
2023-03-06T00:48:47.860Z,65.68
2023-03-06T00:51:13.800Z,65.80
2023-03-06T00:53:36.559Z,65.35
2023-03-06T00:55:59.072Z,64.88
2023-03-06T00:58:21.927Z,64.85
2023-03-06T01:00:45.597Z,65.04
2023-03-06T01:03:08.388Z,65.71
2023-03-06T01:05:34.328Z,66.35
2023-03-06T01:07:57.419Z,66.36
2023-03-06T01:10:21.636Z,66.40
2023-03-06T01:12:45.266Z,65.98
2023-03-06T01:15:08.523Z,66.34
2023-03-06T01:17:31.090Z,66.76
2023-03-06T01:19:53.615Z,66.48
2023-03-06T01:22:16.293Z,66.87
2023-03-06T01:24:39.189Z,67.20
2023-03-06T01:27:01.868Z,67.08
2023-03-06T01:29:26.381Z,67.24
2023-03-06T01:31:49.178Z,66.90
2023-03-06T01:34:12.152Z,66.74
2023-03-06T01:36:35.052Z,66.74
2023-03-06T01:38:58.776Z,66.45
2023-03-06T01:41:22.024Z,66.09
2023-03-06T01:43:46.453Z,66.34
2023-03-06T01:46:44.550Z,66.00
2023-03-06T01:49:15.927Z,66.34
2023-03-06T01:51:47.823Z,66.12
2023-03-06T01:54:22.943Z,66.07
2023-03-06T01:56:49.992Z,66.11
2023-03-06T01:59:13.623Z,66.27
2023-03-06T02:01:39.934Z,66.20
2023-03-06T02:04:02.754Z,66.40
2023-03-06T02:06:25.818Z,66.52
2023-03-06T02:08:52.352Z,65.84
2023-03-06T02:11:18.930Z,65.55
2023-03-06T02:13:44.779Z,64.99
2023-03-06T02:16:09.795Z,64.86
2023-03-06T02:18:33.940Z,64.97
2023-03-06T02:21:03.166Z,65.15
2023-03-06T02:24:02.079Z,65.20
2023-03-06T02:26:26.939Z,65.14
2023-03-06T02:28:51.125Z,65.01
2023-03-06T02:31:24.079Z,65.05
2023-03-06T02:33:46.823Z,65.23
2023-03-06T02:36:14.848Z,65.20
2023-03-06T02:38:45.599Z,65.17
2023-03-06T02:41:09.247Z,65.45
2023-03-06T02:43:35.536Z,65.50
2023-03-06T02:45:58.245Z,65.32
2023-03-06T02:48:21.556Z,65.33
2023-03-06T02:50:45.291Z,65.13
2023-03-06T02:53:09.519Z,65.33
2023-03-06T02:55:32.422Z,65.50
2023-03-06T02:57:55.699Z,65.39
2023-03-06T03:00:19.952Z,65.76
2023-03-06T03:02:42.943Z,65.59
2023-03-06T03:05:46.956Z,65.73
2023-03-06T03:08:20.107Z,65.34
2023-03-06T03:10:44.194Z,65.89
2023-03-06T03:13:09.449Z,65.62
2023-03-06T03:15:33.693Z,65.87
2023-03-06T03:17:56.736Z,65.89
2023-03-06T03:20:21.732Z,66.00
2023-03-06T03:22:53.811Z,66.60
2023-03-06T03:25:16.992Z,66.62
2023-03-06T03:27:40.033Z,66.31
2023-03-06T03:30:04.527Z,66.56
2023-03-06T03:32:27.584Z,66.17
2023-03-06T03:34:50.365Z,66.36
2023-03-06T03:37:13.747Z,66.63
2023-03-06T03:39:39.329Z,66.63
2023-03-06T03:42:01.958Z,66.31
2023-03-06T03:44:24.769Z,66.65
2023-03-06T03:46:48.377Z,66.65
2023-03-06T03:49:16.013Z,66.36
2023-03-06T03:51:39.947Z,66.63
2023-03-06T03:54:02.956Z,67.10
2023-03-06T03:56:31.550Z,66.68
2023-03-06T03:58:59.848Z,67.29
2023-03-06T04:01:27.611Z,66.94
2023-03-06T04:03:51.190Z,66.93
2023-03-06T04:06:14.962Z,66.91
2023-03-06T04:08:37.866Z,67.26
2023-03-06T04:11:00.689Z,67.19
2023-03-06T04:13:24.733Z,67.23
2023-03-06T04:15:50.150Z,67.07
2023-03-06T04:18:16.669Z,67.26
2023-03-06T04:20:40.012Z,67.64
2023-03-06T04:23:03.119Z,67.02
2023-03-06T04:25:25.706Z,66.53
2023-03-06T04:27:48.325Z,66.93
2023-03-06T04:30:12.035Z,67.22
2023-03-06T04:32:35.972Z,66.83
2023-03-06T04:34:58.733Z,67.22
2023-03-06T04:37:25.679Z,66.79
2023-03-06T04:39:50.639Z,67.17
2023-03-06T04:42:13.574Z,67.42
2023-03-06T04:44:36.104Z,67.48
2023-03-06T04:46:58.763Z,67.19
2023-03-06T04:49:21.393Z,67.07
2023-03-06T04:51:44.096Z,67.75
2023-03-06T04:54:06.757Z,68.53
2023-03-06T04:56:30.608Z,67.98
2023-03-06T04:58:53.518Z,67.68
2023-03-06T05:01:16.541Z,67.94
2023-03-06T05:03:39.198Z,67.84
2023-03-06T05:06:02.094Z,67.94
2023-03-06T05:08:24.944Z,67.97
2023-03-06T05:11:02.322Z,67.83
2023-03-06T05:13:26.157Z,67.94
2023-03-06T05:15:48.692Z,67.81
2023-03-06T05:18:11.472Z,67.92
2023-03-06T05:20:34.160Z,67.01
2023-03-06T05:22:56.982Z,67.21
2023-03-06T05:25:19.652Z,67.43
2023-03-06T05:27:42.540Z,67.94
2023-03-06T05:30:05.874Z,68.43
2023-03-06T05:32:28.776Z,68.09
2023-03-06T05:34:52.090Z,67.91
2023-03-06T05:37:14.794Z,67.76
2023-03-06T05:39:37.642Z,67.99
2023-03-06T05:42:01.025Z,68.39
2023-03-06T05:44:24.050Z,68.35
2023-03-06T05:46:49.364Z,67.91
2023-03-06T05:49:11.958Z,68.05
2023-03-06T05:51:34.652Z,68.49
2023-03-06T05:53:57.272Z,69.19
2023-03-06T05:56:21.806Z,69.16
2023-03-06T05:58:44.457Z,68.95
2023-03-06T06:01:16.442Z,68.73
2023-03-06T06:03:39.446Z,69.54
2023-03-06T06:06:07.559Z,68.80
2023-03-06T06:08:30.352Z,68.29
2023-03-06T06:10:53.546Z,67.76
2023-03-06T06:13:16.277Z,67.27
2023-03-06T06:15:39.073Z,67.29
2023-03-06T06:18:01.768Z,67.26
2023-03-06T06:20:25.212Z,67.11
2023-03-06T06:22:47.937Z,66.68
2023-03-06T06:25:10.579Z,67.22
2023-03-06T06:27:33.682Z,67.60
2023-03-06T06:29:56.268Z,67.95
2023-03-06T06:32:19.368Z,67.50
2023-03-06T06:34:42.076Z,67.00
2023-03-06T06:37:04.747Z,66.33
2023-03-06T06:39:27.617Z,66.36
2023-03-06T06:42:05.626Z,67.64
2023-03-06T06:44:34.280Z,66.89
2023-03-06T06:47:21.911Z,66.29
2023-03-06T06:49:40.796Z,65.96
2023-03-06T06:52:05.016Z,65.61
2023-03-06T06:54:28.343Z,65.34
2023-03-06T06:56:51.395Z,65.06
2023-03-06T06:59:17.019Z,64.89
2023-03-06T07:01:40.651Z,65.14
2023-03-06T07:04:03.835Z,64.95
2023-03-06T07:06:26.669Z,65.66
2023-03-06T07:08:49.634Z,65.78
2023-03-06T07:11:17.151Z,65.40
2023-03-06T07:13:40.083Z,65.62
2023-03-06T07:16:02.868Z,65.55
2023-03-06T07:18:25.652Z,64.05
2023-03-06T07:20:48.359Z,62.33
2023-03-06T07:23:13.515Z,62.62
2023-03-06T07:25:37.383Z,61.41
2023-03-06T07:28:00.357Z,61.06
2023-03-06T07:30:23.487Z,61.84
2023-03-06T07:32:46.261Z,60.25
2023-03-06T07:35:19.730Z,60.56
2023-03-06T07:37:43.804Z,58.14
2023-03-06T07:40:07.874Z,56.79
2023-03-06T07:42:30.551Z,56.93
2023-03-06T07:44:57.252Z,56.30
2023-03-06T07:47:20.144Z,55.77
2023-03-06T07:52:19.254Z,55.20
2023-03-06T07:54:42.119Z,54.73
2023-03-06T07:57:04.986Z,54.01
2023-03-06T07:59:27.766Z,53.39
2023-03-06T08:01:50.439Z,54.01
2023-03-06T08:04:13.545Z,53.99
2023-03-06T08:06:36.245Z,54.94
2023-03-06T08:08:59.277Z,54.81
2023-03-06T08:11:24.670Z,54.32
2023-03-06T08:13:48.902Z,54.72
2023-03-06T08:16:12.195Z,54.89
2023-03-06T08:18:35.201Z,55.38
2023-03-06T08:21:07.377Z,55.58
2023-03-06T08:23:30.547Z,54.80
2023-03-06T08:26:00.665Z,54.43
2023-03-06T08:28:23.440Z,53.21
2023-03-06T08:30:46.169Z,52.83
2023-03-06T08:33:10.327Z,53.74
2023-03-06T08:35:33.023Z,54.15
2023-03-06T08:37:57.134Z,53.99
2023-03-06T08:40:23.279Z,54.00
2023-03-06T08:42:47.928Z,53.44
2023-03-06T08:45:11.081Z,54.07
2023-03-06T08:47:35.504Z,53.72
2023-03-06T08:50:00.389Z,52.76
2023-03-06T08:52:23.418Z,53.26
2023-03-06T08:54:46.413Z,52.99
2023-03-06T08:57:09.341Z,53.79
2023-03-06T08:59:32.042Z,53.48
2023-03-06T09:01:55.328Z,54.25
2023-03-06T09:04:17.969Z,53.58
2023-03-06T09:06:43.414Z,52.64
2023-03-06T09:09:07.016Z,52.05
2023-03-06T09:11:29.914Z,54.33
2023-03-06T09:13:54.094Z,55.58
2023-03-06T09:16:16.985Z,56.76
2023-03-06T09:18:40.128Z,55.71
2023-03-06T09:21:04.076Z,55.41
2023-03-06T09:23:26.856Z,55.04
2023-03-06T09:25:58.039Z,53.94
2023-03-06T09:28:21.590Z,53.12
2023-03-06T09:30:44.359Z,53.44
2023-03-06T09:33:07.091Z,54.04
2023-03-06T09:35:29.891Z,52.97
2023-03-06T09:37:52.727Z,53.75
2023-03-06T09:40:49.414Z,53.17
2023-03-06T09:43:21.505Z,53.55
2023-03-06T09:45:45.301Z,53.00
2023-03-06T09:48:15.037Z,53.88
2023-03-06T09:50:55.268Z,53.59
2023-03-06T09:53:52.137Z,53.17
2023-03-06T09:56:49.688Z,53.35
2023-03-06T09:59:21.406Z,54.08
2023-03-06T10:02:12.705Z,53.99
2023-03-06T10:04:42.744Z,53.72
2023-03-06T10:07:28.374Z,53.48
2023-03-06T10:10:03.467Z,53.94
2023-03-06T10:13:05.818Z,53.65
2023-03-06T10:15:39.518Z,54.23
2023-03-06T10:18:04.638Z,54.76
2023-03-06T10:20:33.840Z,54.32
2023-03-06T10:23:03.138Z,54.54
2023-03-06T10:25:33.621Z,54.82
2023-03-06T10:28:11.242Z,55.59
2023-03-06T10:30:48.309Z,56.34
2023-03-06T10:33:23.257Z,55.43
2023-03-06T10:35:55.050Z,55.25
2023-03-06T10:38:28.206Z,54.32
2023-03-06T10:41:13.277Z,54.58
2023-03-06T10:43:39.549Z,54.28
2023-03-06T10:46:04.029Z,54.02
2023-03-06T10:48:29.344Z,54.00
2023-03-06T10:50:55.082Z,53.42
2023-03-06T10:53:31.028Z,53.19
2023-03-06T10:56:34.895Z,53.30
2023-03-06T10:59:25.576Z,52.58
2023-03-06T11:01:50.671Z,52.95
2023-03-06T11:04:28.790Z,51.93
2023-03-06T11:07:21.886Z,52.61
2023-03-06T11:10:08.024Z,52.92
2023-03-06T11:12:33.544Z,53.31
2023-03-06T11:15:14.340Z,52.80
2023-03-06T11:17:50.412Z,52.88
2023-03-06T11:20:20.052Z,52.87
2023-03-06T11:22:49.273Z,52.83
2023-03-06T11:25:15.154Z,51.52
2023-03-06T11:27:42.766Z,51.69
2023-03-06T11:30:17.943Z,52.73
2023-03-06T11:32:48.083Z,51.30
2023-03-06T11:35:16.330Z,51.42
2023-03-06T11:37:44.094Z,51.30
2023-03-06T11:40:19.500Z,50.92
2023-03-06T11:42:47.970Z,51.63
2023-03-06T11:45:36.825Z,50.78
2023-03-06T11:48:14.733Z,49.12
2023-03-06T11:50:39.737Z,48.67
2023-03-06T11:53:05.223Z,46.67
2023-03-06T11:55:54.176Z,46.03
2023-03-06T11:58:41.024Z,46.34
2023-03-06T12:01:13.588Z,44.03
2023-03-06T12:04:04.920Z,43.60
2023-03-06T12:06:30.245Z,43.27
2023-03-06T12:09:19.364Z,44.63
2023-03-06T12:12:02.882Z,45.32
2023-03-06T12:14:33.097Z,44.52
2023-03-06T12:17:22.852Z,44.99
2023-03-06T12:20:20.227Z,45.21
2023-03-06T12:22:44.319Z,45.84
2023-03-06T12:25:31.482Z,46.28
2023-03-06T12:28:19.353Z,46.79
2023-03-06T12:31:16.323Z,46.49
2023-03-06T12:34:00.304Z,46.74
2023-03-06T12:36:47.106Z,45.93
2023-03-06T12:39:40.142Z,45.83
2023-03-06T12:42:23.745Z,46.03
2023-03-06T12:44:49.295Z,45.26
2023-03-06T12:47:15.684Z,44.73
2023-03-06T12:49:46.384Z,44.79
2023-03-06T12:52:24.779Z,44.72
2023-03-06T12:54:54.281Z,44.92
2023-03-06T12:57:16.931Z,43.57
2023-03-06T12:59:44.299Z,44.47
2023-03-06T13:02:10.102Z,45.32
2023-03-06T13:05:00.693Z,45.47
2023-03-06T13:07:49.155Z,46.44
2023-03-06T13:10:25.509Z,46.08
2023-03-06T13:12:57.333Z,46.53
2023-03-06T13:15:38.078Z,45.82
2023-03-06T13:18:01.569Z,46.61
2023-03-06T13:20:35.108Z,46.59
2023-03-06T13:22:58.635Z,47.12
2023-03-06T13:25:21.358Z,47.59
2023-03-06T13:27:53.615Z,47.02
2023-03-06T13:30:27.269Z,48.40
2023-03-06T13:32:52.860Z,47.80
2023-03-06T13:35:33.486Z,48.16
2023-03-06T13:37:57.259Z,47.85
2023-03-06T13:40:30.370Z,47.12
2023-03-06T13:42:53.208Z,46.98
2023-03-06T13:45:38.681Z,46.18
2023-03-06T13:48:37.580Z,46.59
2023-03-06T13:50:48.949Z,47.38
2023-03-06T13:53:49.051Z,47.36
2023-03-06T13:56:26.993Z,47.20
2023-03-06T13:58:49.647Z,47.57
2023-03-06T14:01:34.016Z,48.00
2023-03-06T14:04:17.162Z,49.09
2023-03-06T14:06:48.278Z,49.78
2023-03-06T14:09:24.042Z,50.36
2023-03-06T14:12:02.491Z,51.14
2023-03-06T14:14:43.205Z,51.21
2023-03-06T14:17:06.294Z,51.01
2023-03-06T14:19:32.742Z,51.19
2023-03-06T14:21:57.614Z,51.31
2023-03-06T14:24:48.119Z,51.28
2023-03-06T14:27:18.816Z,51.28
2023-03-06T14:29:41.572Z,51.13
2023-03-06T14:32:10.803Z,51.44
2023-03-06T14:34:40.955Z,51.28
2023-03-06T14:37:07.695Z,51.29
2023-03-06T14:39:36.341Z,51.54
2023-03-06T14:42:28.995Z,52.07
2023-03-06T14:45:18.628Z,51.85
2023-03-06T14:47:41.417Z,51.70
2023-03-06T14:50:26.296Z,51.67
2023-03-06T14:53:04.838Z,51.66
2023-03-06T14:55:29.731Z,51.77
2023-03-06T14:58:00.548Z,52.32
2023-03-06T15:00:28.041Z,52.20
2023-03-06T15:02:52.689Z,52.37
2023-03-06T15:05:29.552Z,52.54
2023-03-06T15:07:55.437Z,52.10
2023-03-06T15:10:31.581Z,52.59
2023-03-06T15:12:54.663Z,52.74
2023-03-06T15:15:17.757Z,52.68
2023-03-06T15:17:42.424Z,52.86
2023-03-06T15:20:08.263Z,53.16
2023-03-06T15:22:40.313Z,53.20
2023-03-06T15:25:32.548Z,54.17
2023-03-06T15:28:02.395Z,53.79
2023-03-06T15:30:29.861Z,53.93
2023-03-06T15:33:08.256Z,54.34
2023-03-06T15:35:33.905Z,54.56
2023-03-06T15:37:58.622Z,53.81
2023-03-06T15:40:23.563Z,53.84
2023-03-06T15:42:46.570Z,54.18
2023-03-06T15:45:20.354Z,54.20
2023-03-06T15:47:44.864Z,53.98
2023-03-06T15:50:18.779Z,56.79
2023-03-06T15:52:41.653Z,58.16
2023-03-06T15:55:04.689Z,59.63
2023-03-06T15:57:31.432Z,60.85
2023-03-06T15:59:54.540Z,61.54
2023-03-06T16:02:19.846Z,62.46
2023-03-06T16:04:42.664Z,63.60
2023-03-06T16:07:05.325Z,63.67
2023-03-06T16:09:28.101Z,64.83
2023-03-06T16:11:51.046Z,65.77
2023-03-06T16:14:23.690Z,66.01
2023-03-06T16:16:46.817Z,66.74
2023-03-06T16:19:25.392Z,66.78
2023-03-06T16:21:49.142Z,66.85
2023-03-06T16:24:15.092Z,67.50
2023-03-06T16:26:38.483Z,67.22
2023-03-06T16:29:02.128Z,67.74
2023-03-06T16:31:25.839Z,68.11
2023-03-06T16:33:48.650Z,67.63
2023-03-06T16:36:23.315Z,67.84
2023-03-06T16:38:46.278Z,67.83
2023-03-06T16:41:09.261Z,68.15
2023-03-06T16:43:31.893Z,67.98
2023-03-06T16:45:55.529Z,68.01
2023-03-06T16:48:18.401Z,67.98
2023-03-06T16:50:41.218Z,67.95
2023-03-06T16:53:04.693Z,68.10
2023-03-06T16:55:27.867Z,68.31
2023-03-06T16:57:51.038Z,67.97
2023-03-06T17:00:15.826Z,67.61
2023-03-06T17:02:39.714Z,67.69
2023-03-06T17:05:02.462Z,68.14
2023-03-06T17:07:25.470Z,68.86
2023-03-06T17:09:48.242Z,68.91
2023-03-06T17:12:11.103Z,69.09
2023-03-06T17:14:34.206Z,69.87
2023-03-06T17:16:58.427Z,69.94
2023-03-06T17:19:21.255Z,70.52
2023-03-06T17:21:44.403Z,70.37
2023-03-06T17:24:07.808Z,70.06
2023-03-06T17:26:30.940Z,70.29
2023-03-06T17:28:55.964Z,70.31
2023-03-06T17:31:21.757Z,70.52
2023-03-06T17:33:45.051Z,70.61
2023-03-06T17:36:09.035Z,70.73
2023-03-06T17:38:32.085Z,70.32
2023-03-06T17:40:55.242Z,70.14
2023-03-06T17:43:17.950Z,69.98
2023-03-06T17:45:40.596Z,70.07
2023-03-06T17:48:03.408Z,69.97
2023-03-06T17:50:26.280Z,70.33
2023-03-06T17:52:49.133Z,70.72
2023-03-06T17:55:13.027Z,70.75
2023-03-06T17:57:35.906Z,71.24
2023-03-06T17:59:59.203Z,70.86
2023-03-06T18:02:22.059Z,70.79
2023-03-06T18:04:45.094Z,71.19
2023-03-06T18:07:08.606Z,71.33
2023-03-06T18:09:31.587Z,71.80
2023-03-06T18:11:54.898Z,72.10
2023-03-06T18:14:17.934Z,72.21
2023-03-06T18:16:41.051Z,72.20
2023-03-06T18:19:04.186Z,72.26
2023-03-06T18:21:27.127Z,72.64
2023-03-06T18:23:50.032Z,72.65
2023-03-06T18:26:14.001Z,72.74
2023-03-06T18:28:37.043Z,72.63
2023-03-06T18:31:00.121Z,72.35
2023-03-06T18:33:23.306Z,72.49
2023-03-06T18:35:46.129Z,73.08
2023-03-06T18:38:09.105Z,73.00
2023-03-06T18:40:32.102Z,72.97
2023-03-06T18:42:55.122Z,72.65
2023-03-06T18:45:18.057Z,72.41
2023-03-06T18:47:41.103Z,72.15
2023-03-06T18:50:03.955Z,71.95
2023-03-06T18:52:27.311Z,72.22
2023-03-06T18:54:50.995Z,72.24
2023-03-06T18:57:13.559Z,72.55
2023-03-06T18:59:37.003Z,72.23
2023-03-06T19:01:59.956Z,72.06
2023-03-06T19:04:23.089Z,71.93
2023-03-06T19:06:45.934Z,71.68
2023-03-06T19:09:11.320Z,71.83
2023-03-06T19:11:34.465Z,71.88
2023-03-06T19:13:58.083Z,73.04
2023-03-06T19:16:29.943Z,73.13
2023-03-06T19:18:55.708Z,73.23
2023-03-06T19:21:21.011Z,74.54
2023-03-06T19:23:45.605Z,74.47
2023-03-06T19:26:10.495Z,73.92
2023-03-06T19:28:35.227Z,74.97
2023-03-06T19:31:00.197Z,76.09
2023-03-06T19:33:23.182Z,77.53
2023-03-06T19:35:46.587Z,77.25
2023-03-06T19:38:10.314Z,77.15
2023-03-06T19:40:34.142Z,77.63
2023-03-06T19:42:57.008Z,79.21
2023-03-06T19:45:19.943Z,80.79
2023-03-06T19:47:42.756Z,80.34
2023-03-06T19:50:06.132Z,80.78
2023-03-06T19:52:29.136Z,80.81
2023-03-06T19:54:52.483Z,80.29
2023-03-06T19:57:15.453Z,80.41
2023-03-06T19:59:39.978Z,79.19
2023-03-06T20:02:02.834Z,79.01
2023-03-06T20:04:26.294Z,79.39
2023-03-06T20:06:52.605Z,78.97
2023-03-06T20:09:15.569Z,79.58
2023-03-06T20:11:38.820Z,78.91
2023-03-06T20:14:04.213Z,79.62
2023-03-06T20:16:30.668Z,79.26
2023-03-06T20:18:54.712Z,78.27
2023-03-06T20:21:17.671Z,78.39
2023-03-06T20:23:41.780Z,78.80
2023-03-06T20:26:06.797Z,79.64
2023-03-06T20:28:30.464Z,79.14
2023-03-06T20:30:53.699Z,78.89
2023-03-06T20:33:16.946Z,78.58
2023-03-06T20:35:42.123Z,78.94
2023-03-06T20:38:05.394Z,79.25
2023-03-06T20:40:28.411Z,78.78
2023-03-06T20:42:51.437Z,78.74
2023-03-06T20:45:15.566Z,78.22
2023-03-06T20:47:38.502Z,77.36
2023-03-06T20:50:01.485Z,77.34
2023-03-06T20:52:24.557Z,77.07
2023-03-06T20:54:48.210Z,76.64
2023-03-06T20:57:10.868Z,76.87
2023-03-06T20:59:33.702Z,76.27
2023-03-06T21:01:56.574Z,76.80
2023-03-06T21:04:19.434Z,77.43
2023-03-06T21:06:46.498Z,77.19
2023-03-06T21:09:10.917Z,76.47
2023-03-06T21:11:34.938Z,76.39
2023-03-06T21:13:57.819Z,77.15
2023-03-06T21:16:22.362Z,77.10
2023-03-06T21:18:45.649Z,77.29
2023-03-06T21:21:19.685Z,78.53
2023-03-06T21:23:42.534Z,76.40
2023-03-06T21:26:06.002Z,76.21
2023-03-06T21:28:29.018Z,76.11
2023-03-06T21:30:52.039Z,75.81
2023-03-06T21:33:20.620Z,76.90
2023-03-06T21:35:44.993Z,77.15
2023-03-06T21:38:08.418Z,78.21
2023-03-06T21:40:31.309Z,78.40
2023-03-06T21:42:53.935Z,78.71
2023-03-06T21:45:16.628Z,79.34
2023-03-06T21:47:41.006Z,79.51
2023-03-06T21:50:08.090Z,79.73
2023-03-06T21:52:30.760Z,78.92
2023-03-06T21:54:53.387Z,79.30
2023-03-06T21:57:16.016Z,79.60
2023-03-06T21:59:39.533Z,79.67
2023-03-06T22:02:02.641Z,79.55
2023-03-06T22:04:25.230Z,80.13
2023-03-06T22:06:47.833Z,80.70
2023-03-06T22:09:12.938Z,81.07
2023-03-06T22:11:38.721Z,80.15
2023-03-06T22:14:01.309Z,79.89
2023-03-06T22:16:24.624Z,80.13
2023-03-06T22:18:49.637Z,80.10
2023-03-06T22:21:15.334Z,80.25
2023-03-06T22:23:38.684Z,80.09
2023-03-06T22:26:04.091Z,80.02
2023-03-06T22:28:27.257Z,80.35
2023-03-06T22:30:50.027Z,79.82
2023-03-06T22:33:13.181Z,80.23
2023-03-06T22:35:35.968Z,80.95
2023-03-06T22:37:58.797Z,81.90
2023-03-06T22:40:21.533Z,81.64
2023-03-06T22:42:44.054Z,81.77
2023-03-06T22:45:07.171Z,81.08
2023-03-06T22:47:29.798Z,81.25
2023-03-06T22:49:52.477Z,81.14
2023-03-06T22:52:15.384Z,81.62
2023-03-06T22:54:37.975Z,81.79
2023-03-06T22:57:00.614Z,81.36
2023-03-06T22:59:23.199Z,81.23
2023-03-06T23:01:45.815Z,80.77
2023-03-06T23:04:11.399Z,80.63
2023-03-06T23:06:36.590Z,80.57
2023-03-06T23:09:14.623Z,79.99
2023-03-06T23:11:55.708Z,79.58
2023-03-06T23:14:37.677Z,79.65
2023-03-06T23:17:19.194Z,79.95
2023-03-06T23:20:00.604Z,80.09
2023-03-06T23:22:42.194Z,80.78
2023-03-06T23:25:23.614Z,80.33
2023-03-06T23:27:46.292Z,80.14
2023-03-06T23:30:09.621Z,80.99
2023-03-06T23:32:33.739Z,81.56
2023-03-06T23:34:56.324Z,81.56
2023-03-06T23:37:18.981Z,81.18
2023-03-06T23:39:42.438Z,81.17
2023-03-06T23:42:05.513Z,81.01
2023-03-06T23:44:28.249Z,81.53
2023-03-06T23:46:50.993Z,81.46
2023-03-06T23:49:34.489Z,81.21
2023-03-06T23:51:57.527Z,81.16
2023-03-06T23:54:20.134Z,81.84
2023-03-06T23:56:42.746Z,81.48
2023-03-06T23:59:05.656Z,81.75
